sensor_id;sensor_type;location;lat;lon;timestamp;P1;durP1;ratioP1;P2;durP2;ratioP2
44204;SDS011;30163;42.698;23.344;2022-09-13T00:01:37;14.85;;;6.43;;
44204;SDS011;30163;42.698;23.344;2022-09-13T00:04:02;9.57;;;6.60;;
44204;SDS011;30163;42.698;23.344;2022-09-13T00:06:28;8.55;;;6.13;;
44204;SDS011;30163;42.698;23.344;2022-09-13T00:08:55;10.18;;;6.75;;
44204;SDS011;30163;42.698;23.344;2022-09-13T00:11:22;12.23;;;6.93;;
44204;SDS011;30163;42.698;23.344;2022-09-13T00:13:49;9.73;;;5.90;;
44204;SDS011;30163;42.698;23.344;2022-09-13T00:16:16;9.40;;;5.80;;
44204;SDS011;30163;42.698;23.344;2022-09-13T00:18:43;13.50;;;6.20;;
44204;SDS011;30163;42.698;23.344;2022-09-13T00:21:09;9.82;;;6.05;;
44204;SDS011;30163;42.698;23.344;2022-09-13T00:23:37;9.55;;;6.80;;
44204;SDS011;30163;42.698;23.344;2022-09-13T00:26:07;8.15;;;5.80;;
44204;SDS011;30163;42.698;23.344;2022-09-13T00:28:34;9.15;;;5.97;;
44204;SDS011;30163;42.698;23.344;2022-09-13T00:31:01;9.57;;;6.53;;
44204;SDS011;30163;42.698;23.344;2022-09-13T00:33:27;11.82;;;6.40;;
44204;SDS011;30163;42.698;23.344;2022-09-13T00:35:52;8.15;;;5.63;;
44204;SDS011;30163;42.698;23.344;2022-09-13T00:38:17;20.65;;;7.60;;
44204;SDS011;30163;42.698;23.344;2022-09-13T00:40:43;8.30;;;6.63;;
44204;SDS011;30163;42.698;23.344;2022-09-13T00:43:15;17.83;;;6.25;;
44204;SDS011;30163;42.698;23.344;2022-09-13T00:45:45;12.40;;;6.32;;
44204;SDS011;30163;42.698;23.344;2022-09-13T00:48:16;9.27;;;6.65;;
44204;SDS011;30163;42.698;23.344;2022-09-13T00:50:46;14.25;;;6.78;;
44204;SDS011;30163;42.698;23.344;2022-09-13T00:53:16;12.27;;;6.90;;
44204;SDS011;30163;42.698;23.344;2022-09-13T00:55:59;12.57;;;6.35;;
44204;SDS011;30163;42.698;23.344;2022-09-13T00:58:38;12.57;;;6.22;;
44204;SDS011;30163;42.698;23.344;2022-09-13T01:01:17;9.30;;;6.07;;
44204;SDS011;30163;42.698;23.344;2022-09-13T01:03:43;10.73;;;7.05;;
44204;SDS011;30163;42.698;23.344;2022-09-13T01:06:10;8.60;;;5.90;;
44204;SDS011;30163;42.698;23.344;2022-09-13T01:08:40;9.55;;;6.70;;
44204;SDS011;30163;42.698;23.344;2022-09-13T01:11:11;14.82;;;6.45;;
44204;SDS011;30163;42.698;23.344;2022-09-13T01:13:58;9.82;;;6.38;;
44204;SDS011;30163;42.698;23.344;2022-09-13T01:16:24;11.68;;;7.07;;
44204;SDS011;30163;42.698;23.344;2022-09-13T01:18:49;12.93;;;7.00;;
44204;SDS011;30163;42.698;23.344;2022-09-13T01:38:05;10.50;;;6.43;;
44204;SDS011;30163;42.698;23.344;2022-09-13T01:46:19;9.98;;;6.05;;
44204;SDS011;30163;42.698;23.344;2022-09-13T01:52:07;12.55;;;6.38;;
44204;SDS011;30163;42.698;23.344;2022-09-13T02:05:32;12.27;;;6.47;;
44204;SDS011;30163;42.698;23.344;2022-09-13T02:08:05;15.98;;;6.07;;
44204;SDS011;30163;42.698;23.344;2022-09-13T02:10:34;15.68;;;6.47;;
44204;SDS011;30163;42.698;23.344;2022-09-13T02:13:03;9.75;;;6.25;;
44204;SDS011;30163;42.698;23.344;2022-09-13T02:15:33;16.77;;;7.28;;
44204;SDS011;30163;42.698;23.344;2022-09-13T02:18:05;11.80;;;7.95;;
44204;SDS011;30163;42.698;23.344;2022-09-13T02:20:34;12.82;;;7.15;;
44204;SDS011;30163;42.698;23.344;2022-09-13T02:23:02;8.20;;;6.15;;
44204;SDS011;30163;42.698;23.344;2022-09-13T02:25:31;10.82;;;7.45;;
44204;SDS011;30163;42.698;23.344;2022-09-13T02:27:59;12.10;;;7.18;;
44204;SDS011;30163;42.698;23.344;2022-09-13T02:30:27;14.98;;;7.53;;
44204;SDS011;30163;42.698;23.344;2022-09-13T02:35:37;10.25;;;6.97;;
44204;SDS011;30163;42.698;23.344;2022-09-13T02:38:07;17.13;;;7.75;;
44204;SDS011;30163;42.698;23.344;2022-09-13T02:40:42;12.65;;;7.50;;
44204;SDS011;30163;42.698;23.344;2022-09-13T02:43:14;12.80;;;8.50;;
44204;SDS011;30163;42.698;23.344;2022-09-13T02:45:46;13.50;;;7.55;;
44204;SDS011;30163;42.698;23.344;2022-09-13T02:48:18;14.18;;;7.50;;
44204;SDS011;30163;42.698;23.344;2022-09-13T02:51:05;12.93;;;7.95;;
44204;SDS011;30163;42.698;23.344;2022-09-13T02:53:38;10.65;;;7.40;;
44204;SDS011;30163;42.698;23.344;2022-09-13T03:01:36;10.25;;;7.00;;
44204;SDS011;30163;42.698;23.344;2022-09-13T03:04:02;15.88;;;7.80;;
44204;SDS011;30163;42.698;23.344;2022-09-13T03:06:28;13.10;;;7.65;;
44204;SDS011;30163;42.698;23.344;2022-09-13T03:08:54;17.83;;;7.75;;
44204;SDS011;30163;42.698;23.344;2022-09-13T03:13:57;16.75;;;7.47;;
44204;SDS011;30163;42.698;23.344;2022-09-13T03:30:48;11.10;;;6.63;;
44204;SDS011;30163;42.698;23.344;2022-09-13T03:38:52;11.85;;;8.13;;
44204;SDS011;30163;42.698;23.344;2022-09-13T03:41:30;14.30;;;7.57;;
44204;SDS011;30163;42.698;23.344;2022-09-13T03:44:01;15.20;;;7.35;;
44204;SDS011;30163;42.698;23.344;2022-09-13T03:49:08;11.00;;;8.00;;
44204;SDS011;30163;42.698;23.344;2022-09-13T03:51:38;45.78;;;8.38;;
44204;SDS011;30163;42.698;23.344;2022-09-13T03:54:09;18.23;;;8.13;;
44204;SDS011;30163;42.698;23.344;2022-09-13T03:56:41;10.85;;;7.53;;
44204;SDS011;30163;42.698;23.344;2022-09-13T03:59:07;11.65;;;8.07;;
44204;SDS011;30163;42.698;23.344;2022-09-13T04:01:32;17.05;;;7.18;;
44204;SDS011;30163;42.698;23.344;2022-09-13T04:03:58;17.45;;;9.13;;
44204;SDS011;30163;42.698;23.344;2022-09-13T04:06:23;17.92;;;8.55;;
44204;SDS011;30163;42.698;23.344;2022-09-13T04:08:49;11.48;;;8.00;;
44204;SDS011;30163;42.698;23.344;2022-09-13T04:11:14;24.10;;;8.70;;
44204;SDS011;30163;42.698;23.344;2022-09-13T04:13:39;13.52;;;8.20;;
44204;SDS011;30163;42.698;23.344;2022-09-13T04:16:06;14.20;;;7.85;;
44204;SDS011;30163;42.698;23.344;2022-09-13T04:18:31;14.70;;;7.80;;
44204;SDS011;30163;42.698;23.344;2022-09-13T04:20:58;14.73;;;8.02;;
44204;SDS011;30163;42.698;23.344;2022-09-13T04:23:25;15.40;;;8.85;;
44204;SDS011;30163;42.698;23.344;2022-09-13T04:25:52;16.05;;;8.52;;
44204;SDS011;30163;42.698;23.344;2022-09-13T04:28:18;13.18;;;8.27;;
44204;SDS011;30163;42.698;23.344;2022-09-13T04:30:44;17.40;;;9.45;;
44204;SDS011;30163;42.698;23.344;2022-09-13T04:33:10;20.45;;;10.93;;
44204;SDS011;30163;42.698;23.344;2022-09-13T04:35:36;20.08;;;10.25;;
44204;SDS011;30163;42.698;23.344;2022-09-13T04:38:03;19.10;;;10.15;;
44204;SDS011;30163;42.698;23.344;2022-09-13T04:40:29;24.75;;;11.65;;
44204;SDS011;30163;42.698;23.344;2022-09-13T04:42:54;23.73;;;10.13;;
44204;SDS011;30163;42.698;23.344;2022-09-13T04:45:20;19.77;;;10.10;;
44204;SDS011;30163;42.698;23.344;2022-09-13T04:47:49;28.30;;;11.05;;
44204;SDS011;30163;42.698;23.344;2022-09-13T04:50:16;27.55;;;10.88;;
44204;SDS011;30163;42.698;23.344;2022-09-13T04:52:41;30.80;;;10.70;;
44204;SDS011;30163;42.698;23.344;2022-09-13T04:55:07;25.55;;;9.95;;
44204;SDS011;30163;42.698;23.344;2022-09-13T04:57:32;19.60;;;9.55;;
44204;SDS011;30163;42.698;23.344;2022-09-13T04:59:58;35.53;;;9.77;;
44204;SDS011;30163;42.698;23.344;2022-09-13T05:02:23;25.38;;;9.82;;
44204;SDS011;30163;42.698;23.344;2022-09-13T05:04:48;25.58;;;8.90;;
44204;SDS011;30163;42.698;23.344;2022-09-13T05:07:14;22.50;;;9.30;;
44204;SDS011;30163;42.698;23.344;2022-09-13T05:09:39;14.05;;;7.70;;
44204;SDS011;30163;42.698;23.344;2022-09-13T05:12:05;21.92;;;8.75;;
44204;SDS011;30163;42.698;23.344;2022-09-13T05:14:30;19.00;;;8.30;;
44204;SDS011;30163;42.698;23.344;2022-09-13T05:16:56;30.63;;;9.48;;
44204;SDS011;30163;42.698;23.344;2022-09-13T05:19:21;13.60;;;7.82;;
44204;SDS011;30163;42.698;23.344;2022-09-13T05:21:46;14.43;;;6.30;;
44204;SDS011;30163;42.698;23.344;2022-09-13T05:24:12;15.02;;;7.20;;
44204;SDS011;30163;42.698;23.344;2022-09-13T05:26:37;14.23;;;7.00;;
44204;SDS011;30163;42.698;23.344;2022-09-13T05:29:03;19.48;;;7.40;;
44204;SDS011;30163;42.698;23.344;2022-09-13T05:31:30;22.70;;;7.18;;
44204;SDS011;30163;42.698;23.344;2022-09-13T05:34:00;17.13;;;6.45;;
44204;SDS011;30163;42.698;23.344;2022-09-13T05:36:27;12.32;;;6.47;;
44204;SDS011;30163;42.698;23.344;2022-09-13T05:38:53;15.40;;;6.43;;
44204;SDS011;30163;42.698;23.344;2022-09-13T05:41:19;9.65;;;5.85;;
44204;SDS011;30163;42.698;23.344;2022-09-13T05:43:45;13.07;;;6.13;;
44204;SDS011;30163;42.698;23.344;2022-09-13T05:46:11;11.82;;;6.60;;
44204;SDS011;30163;42.698;23.344;2022-09-13T05:48:38;7.45;;;5.40;;
44204;SDS011;30163;42.698;23.344;2022-09-13T05:51:07;19.88;;;6.63;;
44204;SDS011;30163;42.698;23.344;2022-09-13T05:53:34;13.05;;;6.15;;
44204;SDS011;30163;42.698;23.344;2022-09-13T05:56:01;16.83;;;6.00;;
44204;SDS011;30163;42.698;23.344;2022-09-13T05:58:26;9.88;;;4.93;;
44204;SDS011;30163;42.698;23.344;2022-09-13T06:00:55;21.30;;;6.78;;
44204;SDS011;30163;42.698;23.344;2022-09-13T06:03:21;9.00;;;5.70;;
44204;SDS011;30163;42.698;23.344;2022-09-13T06:05:47;20.95;;;5.82;;
44204;SDS011;30163;42.698;23.344;2022-09-13T06:08:12;8.57;;;5.35;;
44204;SDS011;30163;42.698;23.344;2022-09-13T06:10:38;8.15;;;5.13;;
44204;SDS011;30163;42.698;23.344;2022-09-13T06:13:04;11.63;;;6.28;;
44204;SDS011;30163;42.698;23.344;2022-09-13T06:15:29;7.00;;;4.85;;
44204;SDS011;30163;42.698;23.344;2022-09-13T06:17:55;12.70;;;7.07;;
44204;SDS011;30163;42.698;23.344;2022-09-13T06:20:20;12.50;;;5.20;;
44204;SDS011;30163;42.698;23.344;2022-09-13T06:22:46;8.95;;;5.75;;
44204;SDS011;30163;42.698;23.344;2022-09-13T06:25:12;11.23;;;5.35;;
44204;SDS011;30163;42.698;23.344;2022-09-13T06:27:38;18.27;;;5.72;;
44204;SDS011;30163;42.698;23.344;2022-09-13T06:30:03;10.90;;;4.85;;
44204;SDS011;30163;42.698;23.344;2022-09-13T06:32:29;17.73;;;5.15;;
44204;SDS011;30163;42.698;23.344;2022-09-13T06:34:55;11.38;;;4.72;;
44204;SDS011;30163;42.698;23.344;2022-09-13T06:37:20;11.35;;;5.20;;
44204;SDS011;30163;42.698;23.344;2022-09-13T06:39:46;6.95;;;5.05;;
44204;SDS011;30163;42.698;23.344;2022-09-13T06:42:11;7.53;;;5.07;;
44204;SDS011;30163;42.698;23.344;2022-09-13T06:44:37;12.18;;;5.68;;
44204;SDS011;30163;42.698;23.344;2022-09-13T06:47:02;10.95;;;5.25;;
44204;SDS011;30163;42.698;23.344;2022-09-13T06:49:27;11.50;;;5.45;;
44204;SDS011;30163;42.698;23.344;2022-09-13T06:51:55;17.20;;;4.72;;
44204;SDS011;30163;42.698;23.344;2022-09-13T06:54:21;12.88;;;4.55;;
44204;SDS011;30163;42.698;23.344;2022-09-13T06:56:47;17.55;;;5.40;;
44204;SDS011;30163;42.698;23.344;2022-09-13T06:59:12;8.20;;;4.88;;
44204;SDS011;30163;42.698;23.344;2022-09-13T07:01:38;8.85;;;4.80;;
44204;SDS011;30163;42.698;23.344;2022-09-13T07:04:06;9.32;;;4.53;;
44204;SDS011;30163;42.698;23.344;2022-09-13T07:06:37;8.75;;;4.60;;
44204;SDS011;30163;42.698;23.344;2022-09-13T07:09:05;6.45;;;4.20;;
44204;SDS011;30163;42.698;23.344;2022-09-13T07:11:32;10.13;;;4.63;;
44204;SDS011;30163;42.698;23.344;2022-09-13T07:13:59;12.60;;;4.70;;
44204;SDS011;30163;42.698;23.344;2022-09-13T07:16:26;8.73;;;4.13;;
44204;SDS011;30163;42.698;23.344;2022-09-13T07:18:53;8.85;;;4.88;;
44204;SDS011;30163;42.698;23.344;2022-09-13T07:21:23;10.73;;;4.75;;
44204;SDS011;30163;42.698;23.344;2022-09-13T07:23:50;9.25;;;5.13;;
44204;SDS011;30163;42.698;23.344;2022-09-13T07:26:16;13.70;;;4.65;;
44204;SDS011;30163;42.698;23.344;2022-09-13T07:28:43;19.30;;;5.03;;
44204;SDS011;30163;42.698;23.344;2022-09-13T07:31:17;6.97;;;4.32;;
44204;SDS011;30163;42.698;23.344;2022-09-13T07:33:44;18.00;;;4.93;;
44204;SDS011;30163;42.698;23.344;2022-09-13T07:36:10;7.47;;;5.05;;
44204;SDS011;30163;42.698;23.344;2022-09-13T07:38:42;11.55;;;4.68;;
44204;SDS011;30163;42.698;23.344;2022-09-13T07:41:13;11.75;;;5.45;;
44204;SDS011;30163;42.698;23.344;2022-09-13T07:43:40;9.02;;;4.75;;
44204;SDS011;30163;42.698;23.344;2022-09-13T07:46:10;8.15;;;4.20;;
44204;SDS011;30163;42.698;23.344;2022-09-13T07:48:38;10.40;;;4.10;;
44204;SDS011;30163;42.698;23.344;2022-09-13T07:53:31;9.05;;;4.80;;
44204;SDS011;30163;42.698;23.344;2022-09-13T07:56:31;9.65;;;4.10;;
44204;SDS011;30163;42.698;23.344;2022-09-13T07:58:51;6.03;;;3.70;;
44204;SDS011;30163;42.698;23.344;2022-09-13T08:03:58;19.42;;;4.22;;
44204;SDS011;30163;42.698;23.344;2022-09-13T08:06:25;6.05;;;4.07;;
44204;SDS011;30163;42.698;23.344;2022-09-13T08:08:51;4.47;;;3.17;;
44204;SDS011;30163;42.698;23.344;2022-09-13T08:11:21;3.53;;;2.88;;
44204;SDS011;30163;42.698;23.344;2022-09-13T08:13:48;13.35;;;3.67;;
44204;SDS011;30163;42.698;23.344;2022-09-13T08:16:16;7.43;;;3.10;;
44204;SDS011;30163;42.698;23.344;2022-09-13T08:18:45;10.02;;;3.40;;
44204;SDS011;30163;42.698;23.344;2022-09-13T08:21:12;8.90;;;3.30;;
44204;SDS011;30163;42.698;23.344;2022-09-13T08:23:38;13.18;;;3.40;;
44204;SDS011;30163;42.698;23.344;2022-09-13T08:26:04;4.53;;;2.58;;
44204;SDS011;30163;42.698;23.344;2022-09-13T08:28:31;4.18;;;2.97;;
44204;SDS011;30163;42.698;23.344;2022-09-13T08:31:04;5.57;;;3.63;;
44204;SDS011;30163;42.698;23.344;2022-09-13T08:33:31;6.57;;;2.78;;
44204;SDS011;30163;42.698;23.344;2022-09-13T08:35:57;13.18;;;3.50;;
44204;SDS011;30163;42.698;23.344;2022-09-13T08:38:22;5.60;;;3.40;;
44204;SDS011;30163;42.698;23.344;2022-09-13T08:40:49;13.32;;;7.53;;
44204;SDS011;30163;42.698;23.344;2022-09-13T08:46:05;4.30;;;2.85;;
44204;SDS011;30163;42.698;23.344;2022-09-13T08:48:36;7.55;;;5.13;;
44204;SDS011;30163;42.698;23.344;2022-09-13T08:51:05;7.18;;;3.85;;
44204;SDS011;30163;42.698;23.344;2022-09-13T08:53:32;3.53;;;2.67;;
44204;SDS011;30163;42.698;23.344;2022-09-13T08:56:11;4.68;;;3.25;;
44204;SDS011;30163;42.698;23.344;2022-09-13T09:01:53;4.50;;;2.50;;
44204;SDS011;30163;42.698;23.344;2022-09-13T09:07:01;4.50;;;3.10;;
44204;SDS011;30163;42.698;23.344;2022-09-13T09:14:58;8.63;;;2.80;;
44204;SDS011;30163;42.698;23.344;2022-09-13T09:17:45;5.00;;;2.50;;
44204;SDS011;30163;42.698;23.344;2022-09-13T09:22:42;9.73;;;2.80;;
44204;SDS011;30163;42.698;23.344;2022-09-13T09:25:08;7.82;;;3.22;;
44204;SDS011;30163;42.698;23.344;2022-09-13T09:27:35;4.53;;;2.80;;
44204;SDS011;30163;42.698;23.344;2022-09-13T09:30:00;4.55;;;2.33;;
44204;SDS011;30163;42.698;23.344;2022-09-13T09:38:24;6.32;;;2.67;;
44204;SDS011;30163;42.698;23.344;2022-09-13T09:41:14;6.63;;;2.42;;
44204;SDS011;30163;42.698;23.344;2022-09-13T09:43:45;4.82;;;2.30;;
44204;SDS011;30163;42.698;23.344;2022-09-13T09:46:16;6.40;;;2.50;;
44204;SDS011;30163;42.698;23.344;2022-09-13T09:48:56;4.70;;;2.90;;
44204;SDS011;30163;42.698;23.344;2022-09-13T09:52:01;6.68;;;2.78;;
44204;SDS011;30163;42.698;23.344;2022-09-13T09:54:31;2.92;;;2.10;;
44204;SDS011;30163;42.698;23.344;2022-09-13T09:56:57;5.57;;;2.95;;
44204;SDS011;30163;42.698;23.344;2022-09-13T09:59:30;7.55;;;3.38;;
44204;SDS011;30163;42.698;23.344;2022-09-13T10:02:01;5.18;;;3.20;;
44204;SDS011;30163;42.698;23.344;2022-09-13T10:04:40;5.75;;;3.28;;
44204;SDS011;30163;42.698;23.344;2022-09-13T10:07:08;4.28;;;2.70;;
44204;SDS011;30163;42.698;23.344;2022-09-13T10:09:35;7.30;;;3.83;;
44204;SDS011;30163;42.698;23.344;2022-09-13T10:12:02;6.85;;;4.60;;
44204;SDS011;30163;42.698;23.344;2022-09-13T10:22:23;3.33;;;2.58;;
44204;SDS011;30163;42.698;23.344;2022-09-13T10:24:49;3.75;;;2.67;;
44204;SDS011;30163;42.698;23.344;2022-09-13T10:30:02;7.97;;;2.92;;
44204;SDS011;30163;42.698;23.344;2022-09-13T10:32:30;10.40;;;3.35;;
44204;SDS011;30163;42.698;23.344;2022-09-13T10:34:58;4.60;;;3.20;;
44204;SDS011;30163;42.698;23.344;2022-09-13T10:37:40;6.65;;;3.13;;
44204;SDS011;30163;42.698;23.344;2022-09-13T10:40:10;11.13;;;3.13;;
44204;SDS011;30163;42.698;23.344;2022-09-13T10:42:48;4.22;;;2.88;;
44204;SDS011;30163;42.698;23.344;2022-09-13T10:45:24;6.35;;;2.58;;
44204;SDS011;30163;42.698;23.344;2022-09-13T10:47:52;6.75;;;2.58;;
44204;SDS011;30163;42.698;23.344;2022-09-13T10:52:49;9.35;;;2.78;;
44204;SDS011;30163;42.698;23.344;2022-09-13T11:00:10;4.75;;;3.60;;
44204;SDS011;30163;42.698;23.344;2022-09-13T11:13:30;26.33;;;3.60;;
44204;SDS011;30163;42.698;23.344;2022-09-13T11:27:31;4.50;;;2.40;;
44204;SDS011;30163;42.698;23.344;2022-09-13T11:46:09;5.25;;;2.60;;
44204;SDS011;30163;42.698;23.344;2022-09-13T11:56:46;6.15;;;2.58;;
44204;SDS011;30163;42.698;23.344;2022-09-13T12:01:57;3.88;;;2.55;;
44204;SDS011;30163;42.698;23.344;2022-09-13T12:04:46;2.60;;;2.33;;
44204;SDS011;30163;42.698;23.344;2022-09-13T12:12:53;6.68;;;2.97;;
44204;SDS011;30163;42.698;23.344;2022-09-13T12:15:21;8.43;;;2.10;;
44204;SDS011;30163;42.698;23.344;2022-09-13T12:17:58;3.13;;;2.33;;
44204;SDS011;30163;42.698;23.344;2022-09-13T12:20:30;5.83;;;2.77;;
44204;SDS011;30163;42.698;23.344;2022-09-13T12:23:04;7.90;;;2.50;;
44204;SDS011;30163;42.698;23.344;2022-09-13T12:25:59;3.35;;;2.25;;
44204;SDS011;30163;42.698;23.344;2022-09-13T12:28:47;3.78;;;2.30;;
44204;SDS011;30163;42.698;23.344;2022-09-13T12:31:27;5.72;;;2.20;;
44204;SDS011;30163;42.698;23.344;2022-09-13T12:33:53;3.40;;;2.17;;
44204;SDS011;30163;42.698;23.344;2022-09-13T12:49:46;3.65;;;2.78;;
44204;SDS011;30163;42.698;23.344;2022-09-13T12:52:25;6.15;;;2.60;;
44204;SDS011;30163;42.698;23.344;2022-09-13T13:01:44;6.03;;;2.05;;
44204;SDS011;30163;42.698;23.344;2022-09-13T13:06:47;4.72;;;2.15;;
44204;SDS011;30163;42.698;23.344;2022-09-13T13:09:27;9.73;;;2.20;;
44204;SDS011;30163;42.698;23.344;2022-09-13T13:11:59;5.65;;;2.58;;
44204;SDS011;30163;42.698;23.344;2022-09-13T13:14:29;3.15;;;2.50;;
44204;SDS011;30163;42.698;23.344;2022-09-13T13:33:50;6.20;;;2.80;;
44204;SDS011;30163;42.698;23.344;2022-09-13T13:36:24;3.95;;;2.45;;
44204;SDS011;30163;42.698;23.344;2022-09-13T13:38:52;16.10;;;2.88;;
44204;SDS011;30163;42.698;23.344;2022-09-13T13:44:56;10.27;;;2.75;;
44204;SDS011;30163;42.698;23.344;2022-09-13T13:54:44;4.20;;;2.63;;
44204;SDS011;30163;42.698;23.344;2022-09-13T14:00:23;4.15;;;2.67;;
44204;SDS011;30163;42.698;23.344;2022-09-13T14:10:50;5.32;;;2.90;;
44204;SDS011;30163;42.698;23.344;2022-09-13T14:24:37;6.60;;;2.40;;
44204;SDS011;30163;42.698;23.344;2022-09-13T14:27:09;8.23;;;3.10;;
44204;SDS011;30163;42.698;23.344;2022-09-13T14:32:05;9.07;;;2.57;;
44204;SDS011;30163;42.698;23.344;2022-09-13T14:34:35;9.80;;;2.83;;
44204;SDS011;30163;42.698;23.344;2022-09-13T14:37:03;7.28;;;2.75;;
44204;SDS011;30163;42.698;23.344;2022-09-13T14:39:31;7.53;;;2.83;;
44204;SDS011;30163;42.698;23.344;2022-09-13T14:42:01;5.50;;;3.08;;
44204;SDS011;30163;42.698;23.344;2022-09-13T14:44:37;10.10;;;2.92;;
44204;SDS011;30163;42.698;23.344;2022-09-13T14:47:11;6.80;;;2.95;;
44204;SDS011;30163;42.698;23.344;2022-09-13T14:49:46;6.65;;;2.85;;
44204;SDS011;30163;42.698;23.344;2022-09-13T14:52:20;7.80;;;2.50;;
44204;SDS011;30163;42.698;23.344;2022-09-13T14:54:49;6.82;;;3.25;;
44204;SDS011;30163;42.698;23.344;2022-09-13T14:57:20;10.18;;;2.97;;
44204;SDS011;30163;42.698;23.344;2022-09-13T14:59:49;3.17;;;2.47;;
44204;SDS011;30163;42.698;23.344;2022-09-13T15:02:18;6.70;;;2.70;;
44204;SDS011;30163;42.698;23.344;2022-09-13T15:04:46;5.03;;;3.40;;
44204;SDS011;30163;42.698;23.344;2022-09-13T15:09:57;3.85;;;2.95;;
44204;SDS011;30163;42.698;23.344;2022-09-13T15:12:48;4.28;;;2.83;;
44204;SDS011;30163;42.698;23.344;2022-09-13T15:15:22;4.32;;;2.75;;
44204;SDS011;30163;42.698;23.344;2022-09-13T15:20:23;5.25;;;3.15;;
44204;SDS011;30163;42.698;23.344;2022-09-13T15:25:22;4.68;;;2.85;;
44204;SDS011;30163;42.698;23.344;2022-09-13T15:27:53;7.28;;;4.28;;
44204;SDS011;30163;42.698;23.344;2022-09-13T15:30:24;4.97;;;3.15;;
44204;SDS011;30163;42.698;23.344;2022-09-13T15:35:38;4.43;;;3.22;;
44204;SDS011;30163;42.698;23.344;2022-09-13T15:38:25;3.50;;;2.58;;
44204;SDS011;30163;42.698;23.344;2022-09-13T15:43:28;3.85;;;3.25;;
44204;SDS011;30163;42.698;23.344;2022-09-13T15:45:55;11.93;;;3.45;;
44204;SDS011;30163;42.698;23.344;2022-09-13T15:48:32;8.00;;;3.10;;
44204;SDS011;30163;42.698;23.344;2022-09-13T15:51:12;4.13;;;3.03;;
44204;SDS011;30163;42.698;23.344;2022-09-13T15:53:40;4.32;;;2.85;;
44204;SDS011;30163;42.698;23.344;2022-09-13T15:56:07;12.07;;;3.58;;
44204;SDS011;30163;42.698;23.344;2022-09-13T15:58:33;8.40;;;3.28;;
44204;SDS011;30163;42.698;23.344;2022-09-13T16:00:59;8.55;;;3.67;;
44204;SDS011;30163;42.698;23.344;2022-09-13T16:03:25;4.20;;;3.08;;
44204;SDS011;30163;42.698;23.344;2022-09-13T16:05:51;4.40;;;3.08;;
44204;SDS011;30163;42.698;23.344;2022-09-13T16:08:17;7.07;;;3.80;;
44204;SDS011;30163;42.698;23.344;2022-09-13T16:10:42;6.80;;;3.88;;
44204;SDS011;30163;42.698;23.344;2022-09-13T16:13:08;8.70;;;4.13;;
44204;SDS011;30163;42.698;23.344;2022-09-13T16:15:33;5.35;;;3.70;;
44204;SDS011;30163;42.698;23.344;2022-09-13T16:17:58;7.10;;;3.80;;
44204;SDS011;30163;42.698;23.344;2022-09-13T16:20:24;5.05;;;3.83;;
44204;SDS011;30163;42.698;23.344;2022-09-13T16:22:51;8.93;;;4.25;;
44204;SDS011;30163;42.698;23.344;2022-09-13T16:25:17;10.13;;;3.80;;
44204;SDS011;30163;42.698;23.344;2022-09-13T16:27:43;12.48;;;4.68;;
44204;SDS011;30163;42.698;23.344;2022-09-13T16:30:13;5.30;;;3.83;;
44204;SDS011;30163;42.698;23.344;2022-09-13T16:32:39;6.88;;;4.28;;
44204;SDS011;30163;42.698;23.344;2022-09-13T16:35:05;13.40;;;4.55;;
44204;SDS011;30163;42.698;23.344;2022-09-13T16:37:32;7.22;;;4.47;;
44204;SDS011;30163;42.698;23.344;2022-09-13T16:39:58;9.57;;;4.55;;
44204;SDS011;30163;42.698;23.344;2022-09-13T16:42:24;7.22;;;4.32;;
44204;SDS011;30163;42.698;23.344;2022-09-13T16:44:49;7.22;;;4.13;;
44204;SDS011;30163;42.698;23.344;2022-09-13T16:47:15;13.27;;;4.50;;
44204;SDS011;30163;42.698;23.344;2022-09-13T16:49:40;8.43;;;4.63;;
44204;SDS011;30163;42.698;23.344;2022-09-13T16:52:06;17.25;;;4.85;;
44204;SDS011;30163;42.698;23.344;2022-09-13T16:54:31;11.30;;;4.13;;
44204;SDS011;30163;42.698;23.344;2022-09-13T16:56:59;6.72;;;4.60;;
44204;SDS011;30163;42.698;23.344;2022-09-13T16:59:25;10.77;;;4.78;;
44204;SDS011;30163;42.698;23.344;2022-09-13T17:01:51;8.93;;;5.63;;
44204;SDS011;30163;42.698;23.344;2022-09-13T17:04:16;8.18;;;4.85;;
44204;SDS011;30163;42.698;23.344;2022-09-13T17:06:42;9.77;;;5.07;;
44204;SDS011;30163;42.698;23.344;2022-09-13T17:09:07;7.28;;;4.65;;
44204;SDS011;30163;42.698;23.344;2022-09-13T17:11:36;7.55;;;4.88;;
44204;SDS011;30163;42.698;23.344;2022-09-13T17:14:03;11.25;;;6.78;;
44204;SDS011;30163;42.698;23.344;2022-09-13T17:18:55;15.35;;;7.07;;
44204;SDS011;30163;42.698;23.344;2022-09-13T17:21:23;13.45;;;6.38;;
44204;SDS011;30163;42.698;23.344;2022-09-13T17:23:49;12.13;;;7.03;;
44204;SDS011;30163;42.698;23.344;2022-09-13T17:26:14;18.38;;;11.05;;
44204;SDS011;30163;42.698;23.344;2022-09-13T17:28:40;17.00;;;9.88;;
44204;SDS011;30163;42.698;23.344;2022-09-13T17:31:05;16.50;;;9.43;;
44204;SDS011;30163;42.698;23.344;2022-09-13T17:33:30;11.75;;;6.47;;
44204;SDS011;30163;42.698;23.344;2022-09-13T17:36:00;12.00;;;6.28;;
44204;SDS011;30163;42.698;23.344;2022-09-13T17:38:27;10.75;;;6.53;;
44204;SDS011;30163;42.698;23.344;2022-09-13T17:40:59;9.00;;;5.82;;
44204;SDS011;30163;42.698;23.344;2022-09-13T17:43:29;9.88;;;6.57;;
44204;SDS011;30163;42.698;23.344;2022-09-13T17:45:55;23.35;;;13.38;;
44204;SDS011;30163;42.698;23.344;2022-09-13T17:48:20;40.00;;;24.23;;
44204;SDS011;30163;42.698;23.344;2022-09-13T17:50:46;32.35;;;18.73;;
44204;SDS011;30163;42.698;23.344;2022-09-13T17:53:11;24.50;;;9.95;;
44204;SDS011;30163;42.698;23.344;2022-09-13T17:55:44;26.88;;;13.23;;
44204;SDS011;30163;42.698;23.344;2022-09-13T17:58:10;23.50;;;13.95;;
44204;SDS011;30163;42.698;23.344;2022-09-13T18:00:36;40.50;;;21.35;;
44204;SDS011;30163;42.698;23.344;2022-09-13T18:03:01;15.30;;;8.95;;
44204;SDS011;30163;42.698;23.344;2022-09-13T18:05:27;24.95;;;13.35;;
44204;SDS011;30163;42.698;23.344;2022-09-13T18:07:52;28.05;;;12.52;;
44204;SDS011;30163;42.698;23.344;2022-09-13T18:10:17;34.15;;;19.05;;
44204;SDS011;30163;42.698;23.344;2022-09-13T18:12:43;17.45;;;8.48;;
44204;SDS011;30163;42.698;23.344;2022-09-13T18:15:08;25.33;;;13.18;;
44204;SDS011;30163;42.698;23.344;2022-09-13T18:17:34;20.88;;;11.60;;
44204;SDS011;30163;42.698;23.344;2022-09-13T18:20:00;19.90;;;10.70;;
44204;SDS011;30163;42.698;23.344;2022-09-13T18:22:26;23.95;;;8.02;;
44204;SDS011;30163;42.698;23.344;2022-09-13T18:24:51;18.55;;;8.88;;
44204;SDS011;30163;42.698;23.344;2022-09-13T18:27:16;13.27;;;8.00;;
44204;SDS011;30163;42.698;23.344;2022-09-13T18:29:42;15.82;;;8.13;;
44204;SDS011;30163;42.698;23.344;2022-09-13T18:32:07;20.58;;;8.70;;
44204;SDS011;30163;42.698;23.344;2022-09-13T18:34:32;31.10;;;9.00;;
44204;SDS011;30163;42.698;23.344;2022-09-13T18:36:58;23.83;;;11.75;;
44204;SDS011;30163;42.698;23.344;2022-09-13T18:39:23;24.75;;;8.50;;
44204;SDS011;30163;42.698;23.344;2022-09-13T18:41:49;15.13;;;7.40;;
44204;SDS011;30163;42.698;23.344;2022-09-13T18:44:15;11.27;;;8.43;;
44204;SDS011;30163;42.698;23.344;2022-09-13T18:46:43;16.77;;;7.22;;
44204;SDS011;30163;42.698;23.344;2022-09-13T18:49:08;22.20;;;8.10;;
44204;SDS011;30163;42.698;23.344;2022-09-13T18:51:39;19.33;;;7.63;;
44204;SDS011;30163;42.698;23.344;2022-09-13T18:54:13;14.40;;;8.20;;
44204;SDS011;30163;42.698;23.344;2022-09-13T18:56:40;9.90;;;5.80;;